createdAt,value
2022-12-04T00:01:32.701Z,51.08
2022-12-04T00:04:02.708Z,48.55
2022-12-04T00:06:36.042Z,48.25
2022-12-04T00:09:05.844Z,50.53
2022-12-04T00:11:34.990Z,49.55
2022-12-04T00:14:07.193Z,49.63
2022-12-04T00:16:37.867Z,49.97
2022-12-04T00:19:07.493Z,49.92
2022-12-04T00:21:37.433Z,50.60
2022-12-04T00:24:07.430Z,50.08
2022-12-04T00:26:37.485Z,52.83
2022-12-04T00:29:07.093Z,49.13
2022-12-04T00:31:37.194Z,49.00
2022-12-04T00:34:08.283Z,49.10
2022-12-04T00:36:38.596Z,50.67
2022-12-04T00:39:08.678Z,51.80
2022-12-04T00:41:38.646Z,52.92
2022-12-04T00:44:08.400Z,53.35
2022-12-04T00:46:38.011Z,51.97
2022-12-04T00:49:07.816Z,51.00
2022-12-04T00:51:39.039Z,53.35
2022-12-04T00:54:07.393Z,51.40
2022-12-04T00:56:37.275Z,52.60
2022-12-04T00:59:06.962Z,54.33
2022-12-04T01:01:36.930Z,52.47
2022-12-04T01:04:06.935Z,53.95
2022-12-04T01:06:36.582Z,51.05
2022-12-04T01:09:06.977Z,51.67
2022-12-04T01:11:37.056Z,52.92
2022-12-04T01:14:07.283Z,56.35
2022-12-04T01:16:39.990Z,54.60
2022-12-04T01:19:12.842Z,52.17
2022-12-04T01:21:41.704Z,51.95
2022-12-04T01:24:11.620Z,51.03
2022-12-04T01:26:41.356Z,55.63
2022-12-04T01:29:11.168Z,54.53
2022-12-04T01:31:40.981Z,52.88
2022-12-04T01:34:10.541Z,57.55
2022-12-04T01:36:40.159Z,53.50
2022-12-04T01:39:10.219Z,55.22
2022-12-04T01:41:40.485Z,54.80
2022-12-04T01:44:20.319Z,55.70
2022-12-04T01:47:01.250Z,52.30
2022-12-04T01:49:48.767Z,52.78
2022-12-04T01:52:27.170Z,52.70
2022-12-04T01:55:01.778Z,56.70
2022-12-04T01:57:33.279Z,52.83
2022-12-04T02:00:14.775Z,56.22
2022-12-04T02:02:48.666Z,59.58
2022-12-04T02:05:21.871Z,58.00
2022-12-04T02:08:01.313Z,53.20
2022-12-04T02:11:24.324Z,54.47
2022-12-04T02:14:06.068Z,52.08
2022-12-04T02:17:02.875Z,51.90
2022-12-04T02:20:06.003Z,55.75
2022-12-04T02:23:25.772Z,54.85
2022-12-04T02:26:38.777Z,55.25
2022-12-04T02:29:31.036Z,56.30
2022-12-04T02:32:20.150Z,54.90
2022-12-04T02:38:21.003Z,51.95
2022-12-04T02:41:18.648Z,57.70
2022-12-04T02:44:08.224Z,55.25
2022-12-04T02:46:47.153Z,55.88
2022-12-04T02:49:34.037Z,56.72
2022-12-04T02:52:16.175Z,55.53
2022-12-04T02:54:56.612Z,59.45
2022-12-04T02:57:38.714Z,54.25
2022-12-04T03:00:10.997Z,57.45
2022-12-04T03:03:04.209Z,54.92
2022-12-04T03:06:02.561Z,59.35
2022-12-04T03:08:51.842Z,53.80
2022-12-04T03:11:20.172Z,54.95
2022-12-04T03:14:09.841Z,61.83
2022-12-04T03:16:43.595Z,52.67
2022-12-04T03:19:35.097Z,56.53
2022-12-04T03:22:15.101Z,57.45
2022-12-04T03:24:57.570Z,56.25
2022-12-04T03:27:59.961Z,55.30
2022-12-04T03:30:49.090Z,58.65
2022-12-04T03:33:39.769Z,55.17
2022-12-04T03:36:32.811Z,57.75
2022-12-04T03:39:39.986Z,59.88
2022-12-04T03:42:30.960Z,55.05
2022-12-04T03:45:49.797Z,56.22
2022-12-04T03:48:43.200Z,55.63
2022-12-04T03:51:25.531Z,58.20
2022-12-04T03:54:09.168Z,56.13
2022-12-04T03:57:00.781Z,56.55
2022-12-04T03:59:56.348Z,52.78
2022-12-04T04:02:39.573Z,57.92
2022-12-04T04:05:15.648Z,58.08
2022-12-04T04:08:21.258Z,54.20
2022-12-04T04:11:12.203Z,56.03
2022-12-04T04:14:24.345Z,57.92
2022-12-04T04:17:33.564Z,56.70
2022-12-04T04:20:48.990Z,52.17
2022-12-04T04:23:44.493Z,54.70
2022-12-04T04:26:18.411Z,56.72
2022-12-04T04:28:48.461Z,55.92
2022-12-04T04:31:35.933Z,54.28
2022-12-04T04:34:57.778Z,54.88
2022-12-04T04:38:03.026Z,53.50
2022-12-04T04:41:08.258Z,57.13
2022-12-04T04:44:05.208Z,52.95
2022-12-04T04:46:50.108Z,55.85
2022-12-04T04:49:28.196Z,52.15
2022-12-04T04:52:01.994Z,53.72
2022-12-04T04:54:35.953Z,55.72
2022-12-04T04:57:06.174Z,55.95
2022-12-04T04:59:36.179Z,53.20
2022-12-04T05:02:06.489Z,52.92
2022-12-04T05:04:36.577Z,56.90
2022-12-04T05:12:38.261Z,51.90
2022-12-04T05:15:09.433Z,53.85
2022-12-04T05:17:39.525Z,57.60
2022-12-04T05:20:11.510Z,57.50
2022-12-04T05:22:41.560Z,54.28
2022-12-04T05:25:11.741Z,55.10
2022-12-04T05:27:41.776Z,58.53
2022-12-04T05:30:12.909Z,54.92
2022-12-04T05:32:42.969Z,55.33
2022-12-04T05:35:13.027Z,52.38
2022-12-04T05:37:43.093Z,52.88
2022-12-04T05:40:13.434Z,57.22
2022-12-04T05:42:43.568Z,55.00
2022-12-04T05:45:13.566Z,54.22
2022-12-04T05:47:45.434Z,54.08
2022-12-04T05:50:15.447Z,57.45
2022-12-04T05:52:45.457Z,55.35
2022-12-04T05:55:15.671Z,55.08
2022-12-04T05:57:45.942Z,54.47
2022-12-04T06:00:17.079Z,53.60
2022-12-04T06:02:47.180Z,53.95
2022-12-04T06:05:17.997Z,55.53
2022-12-04T06:07:48.263Z,54.30
2022-12-04T06:10:18.680Z,51.58
2022-12-04T06:12:48.889Z,51.45
2022-12-04T06:15:18.968Z,54.90
2022-12-04T06:17:48.980Z,54.40
2022-12-04T06:20:19.251Z,54.25
2022-12-04T06:22:49.307Z,53.58
2022-12-04T06:25:19.411Z,51.05
2022-12-04T06:27:49.430Z,52.58
2022-12-04T06:30:19.437Z,53.15
2022-12-04T06:32:49.667Z,51.42
2022-12-04T06:35:19.774Z,53.10
2022-12-04T06:37:49.788Z,53.65
2022-12-04T06:40:19.848Z,55.25
2022-12-04T06:42:50.049Z,54.15
2022-12-04T06:45:20.058Z,54.45
2022-12-04T06:47:50.085Z,50.63
2022-12-04T06:50:20.143Z,52.38
2022-12-04T06:52:50.107Z,51.03
2022-12-04T06:55:18.589Z,52.50
2022-12-04T06:57:47.081Z,53.70
2022-12-04T07:00:16.391Z,52.88
2022-12-04T07:02:44.174Z,53.40
2022-12-04T07:05:12.366Z,50.72
2022-12-04T07:07:40.919Z,53.08
2022-12-04T07:10:10.150Z,51.67
2022-12-04T07:12:37.535Z,48.85
2022-12-04T07:15:06.930Z,52.03
2022-12-04T07:17:34.396Z,52.55
2022-12-04T07:20:03.014Z,51.38
2022-12-04T07:22:32.812Z,49.65
2022-12-04T07:25:00.066Z,53.40
2022-12-04T07:27:31.964Z,52.38
2022-12-04T07:29:59.915Z,52.90
2022-12-04T07:32:28.310Z,50.55
2022-12-04T07:34:58.394Z,52.55
2022-12-04T07:37:28.527Z,49.25
2022-12-04T07:39:58.651Z,51.38
2022-12-04T07:42:29.563Z,49.65
2022-12-04T07:44:57.167Z,53.47
2022-12-04T07:47:26.878Z,53.10
2022-12-04T07:49:56.814Z,51.88
2022-12-04T07:52:24.235Z,51.92
2022-12-04T07:54:53.937Z,53.28
2022-12-04T07:57:24.024Z,51.67
2022-12-04T07:59:54.381Z,52.15
2022-12-04T08:02:24.595Z,50.72
2022-12-04T08:04:54.548Z,54.45
2022-12-04T08:07:24.384Z,52.30
2022-12-04T08:09:54.607Z,52.08
2022-12-04T08:12:25.083Z,50.35
2022-12-04T08:14:55.419Z,50.50
2022-12-04T08:17:25.341Z,49.92
2022-12-04T08:19:55.483Z,48.70
2022-12-04T08:22:25.975Z,51.28
2022-12-04T08:24:55.835Z,51.85
2022-12-04T08:27:25.904Z,50.78
2022-12-04T08:29:55.769Z,50.67
2022-12-04T08:32:26.084Z,49.20
2022-12-04T08:34:56.155Z,52.08
2022-12-04T08:37:27.648Z,53.42
2022-12-04T08:39:59.009Z,50.25
2022-12-04T08:42:29.148Z,57.05
2022-12-04T08:44:59.043Z,52.40
2022-12-04T08:47:28.783Z,50.22
2022-12-04T08:49:59.080Z,50.53
2022-12-04T08:52:28.790Z,52.83
2022-12-04T08:54:57.276Z,50.88
2022-12-04T08:57:25.603Z,48.38
2022-12-04T08:59:54.352Z,49.47
2022-12-04T09:02:22.603Z,52.90
2022-12-04T09:04:50.984Z,48.13
2022-12-04T09:07:19.478Z,51.20
2022-12-04T09:09:48.547Z,50.65
2022-12-04T09:12:16.947Z,49.63
2022-12-04T09:14:44.824Z,48.50
2022-12-04T09:17:13.218Z,50.40
2022-12-04T09:19:41.641Z,49.42
2022-12-04T09:22:10.956Z,49.92
2022-12-04T09:24:38.519Z,50.08
2022-12-04T09:27:12.900Z,50.30
2022-12-04T09:29:44.738Z,51.90
2022-12-04T09:32:14.576Z,49.35
2022-12-04T09:34:51.153Z,49.20
2022-12-04T09:37:21.501Z,50.45
2022-12-04T09:39:51.436Z,50.72
2022-12-04T09:42:42.807Z,52.65
2022-12-04T09:45:22.274Z,51.47
2022-12-04T09:48:01.439Z,52.08
2022-12-04T09:50:48.272Z,50.38
2022-12-04T09:53:47.764Z,48.55
2022-12-04T09:56:23.286Z,47.42
2022-12-04T09:59:16.029Z,45.58
2022-12-04T10:02:10.369Z,49.58
2022-12-04T10:04:40.874Z,49.88
2022-12-04T10:07:16.888Z,48.90
2022-12-04T10:10:12.980Z,48.50
2022-12-04T10:13:40.944Z,48.38
2022-12-04T10:16:39.371Z,48.13
2022-12-04T10:19:42.728Z,46.15
2022-12-04T10:22:56.666Z,48.50
2022-12-04T10:25:32.191Z,46.08
2022-12-04T10:28:36.798Z,48.63
2022-12-04T10:31:15.405Z,45.25
2022-12-04T10:34:02.923Z,47.83
2022-12-04T10:36:35.690Z,46.75
2022-12-04T10:39:39.740Z,48.80
2022-12-04T10:42:53.759Z,48.17
2022-12-04T10:45:25.085Z,50.63
2022-12-04T10:47:55.346Z,48.03
2022-12-04T10:50:26.015Z,47.63
2022-12-04T10:52:57.554Z,48.00
2022-12-04T10:55:35.244Z,48.53
2022-12-04T10:58:20.648Z,49.20
2022-12-04T11:01:12.836Z,47.97
2022-12-04T11:03:55.056Z,46.35
2022-12-04T11:06:28.249Z,45.03
2022-12-04T11:09:02.171Z,43.08
2022-12-04T11:11:36.046Z,47.50
2022-12-04T11:14:23.331Z,46.42
2022-12-04T11:17:07.430Z,47.67
2022-12-04T11:19:37.861Z,47.60
2022-12-04T11:22:20.313Z,46.90
2022-12-04T11:24:58.557Z,44.92
2022-12-04T11:27:36.795Z,44.70
2022-12-04T11:30:35.060Z,45.22
2022-12-04T11:33:40.534Z,45.95
2022-12-04T11:36:42.004Z,45.33
2022-12-04T11:39:18.516Z,42.65
2022-12-04T11:42:05.192Z,45.28
2022-12-04T11:44:36.725Z,45.38
2022-12-04T11:47:20.746Z,43.80
2022-12-04T11:50:13.625Z,44.90
2022-12-04T11:53:24.266Z,43.22
2022-12-04T11:56:50.451Z,43.53
2022-12-04T12:00:09.292Z,41.80
2022-12-04T12:03:32.686Z,40.72
2022-12-04T12:06:23.580Z,41.88
2022-12-04T12:09:38.243Z,42.53
2022-12-04T12:12:32.380Z,42.40
2022-12-04T12:15:35.161Z,42.88
2022-12-04T12:19:01.790Z,41.30
2022-12-04T12:22:11.537Z,42.20
2022-12-04T12:25:26.994Z,40.60
2022-12-04T12:28:27.420Z,42.42
2022-12-04T12:31:40.383Z,43.47
2022-12-04T12:34:36.550Z,40.78
2022-12-04T12:37:28.072Z,40.88
2022-12-04T12:40:23.336Z,39.58
2022-12-04T12:43:11.224Z,41.72
2022-12-04T12:46:06.630Z,38.65
2022-12-04T12:49:03.857Z,45.13
2022-12-04T12:52:12.817Z,43.00
2022-12-04T12:54:43.933Z,40.33
2022-12-04T12:57:46.480Z,40.88
2022-12-04T13:00:24.619Z,43.03
2022-12-04T13:03:55.340Z,41.85
2022-12-04T13:06:43.877Z,39.53
2022-12-04T13:09:33.832Z,45.60
2022-12-04T13:12:18.606Z,43.95
2022-12-04T13:14:49.312Z,44.88
2022-12-04T13:17:38.763Z,42.92
2022-12-04T13:23:56.109Z,41.90
2022-12-04T13:27:07.166Z,42.90
2022-12-04T13:30:07.727Z,43.45
2022-12-04T13:32:43.808Z,43.05
2022-12-04T13:36:03.229Z,44.80
2022-12-04T13:38:59.949Z,44.85
2022-12-04T13:41:39.072Z,43.58
2022-12-04T13:44:26.168Z,44.80
2022-12-04T13:47:09.395Z,43.42
2022-12-04T13:49:46.026Z,44.95
2022-12-04T13:52:41.782Z,42.78
2022-12-04T13:55:27.531Z,43.20
2022-12-04T13:58:29.613Z,42.47
2022-12-04T14:01:55.818Z,47.42
2022-12-04T14:04:53.830Z,45.95
2022-12-04T14:07:42.642Z,45.10
2022-12-04T14:10:14.313Z,45.50
2022-12-04T14:13:21.828Z,45.55
2022-12-04T14:16:10.187Z,42.95
2022-12-04T14:18:40.391Z,45.93
2022-12-04T14:21:10.733Z,47.08
2022-12-04T14:23:44.108Z,49.03
2022-12-04T14:26:56.024Z,48.58
2022-12-04T14:29:48.128Z,48.58
2022-12-04T14:32:31.101Z,46.67
2022-12-04T14:34:59.813Z,49.58
2022-12-04T14:37:59.136Z,47.38
2022-12-04T14:40:50.641Z,46.28
2022-12-04T14:43:35.463Z,50.92
2022-12-04T14:46:27.976Z,50.15
2022-12-04T14:49:28.402Z,52.22
2022-12-04T14:52:24.152Z,49.40
2022-12-04T14:55:45.072Z,48.63
2022-12-04T14:58:32.597Z,48.28
2022-12-04T15:01:18.488Z,47.05
2022-12-04T15:03:56.129Z,49.00
2022-12-04T15:06:34.222Z,51.22
2022-12-04T15:09:37.981Z,51.15
2022-12-04T15:12:34.783Z,50.67
2022-12-04T15:15:22.140Z,51.97
2022-12-04T15:18:14.910Z,51.22
2022-12-04T15:20:49.336Z,51.05
2022-12-04T15:23:37.269Z,50.80
2022-12-04T15:26:24.928Z,55.40
2022-12-04T15:29:01.566Z,54.85
2022-12-04T15:31:59.928Z,54.95
2022-12-04T15:35:01.075Z,55.22
2022-12-04T15:37:36.221Z,53.40
2022-12-04T15:40:11.920Z,53.00
2022-12-04T15:42:41.999Z,56.03
2022-12-04T15:45:12.760Z,54.42
2022-12-04T15:47:42.493Z,57.67
2022-12-04T15:50:18.480Z,57.15
2022-12-04T15:53:24.254Z,52.42
2022-12-04T15:56:16.312Z,56.92
2022-12-04T15:59:00.875Z,57.47
2022-12-04T16:01:41.032Z,53.15
2022-12-04T16:04:35.489Z,54.22
2022-12-04T16:07:29.151Z,56.88
2022-12-04T16:10:04.098Z,56.75
2022-12-04T16:12:34.530Z,55.75
2022-12-04T16:15:03.148Z,58.17
2022-12-04T16:17:34.612Z,57.60
2022-12-04T16:20:06.323Z,56.38
2022-12-04T16:22:39.846Z,59.08
2022-12-04T16:25:13.737Z,53.97
2022-12-04T16:27:43.818Z,55.10
2022-12-04T16:30:14.707Z,59.00
2022-12-04T16:32:44.769Z,59.53
2022-12-04T16:35:17.524Z,55.70
2022-12-04T16:37:47.671Z,57.88
2022-12-04T16:40:18.088Z,57.53
2022-12-04T16:42:48.250Z,57.95
2022-12-04T16:45:35.447Z,59.17
2022-12-04T16:48:03.948Z,57.25
2022-12-04T16:50:33.257Z,57.85
2022-12-04T16:53:02.986Z,56.72
2022-12-04T16:55:40.049Z,62.85
2022-12-04T16:58:10.072Z,61.47
2022-12-04T17:00:44.906Z,60.75
2022-12-04T17:03:34.596Z,61.00
2022-12-04T17:06:02.186Z,59.17
2022-12-04T17:08:32.006Z,59.17
2022-12-04T17:11:02.018Z,63.13
2022-12-04T17:13:30.430Z,59.30
2022-12-04T17:15:59.300Z,60.38
2022-12-04T17:18:27.392Z,58.08
2022-12-04T17:20:58.745Z,60.33
2022-12-04T17:23:27.329Z,61.97
2022-12-04T17:26:03.963Z,58.22
2022-12-04T17:28:36.443Z,60.00
2022-12-04T17:31:17.968Z,59.35
2022-12-04T17:33:48.869Z,58.17
2022-12-04T17:36:25.843Z,57.08
2022-12-04T17:39:01.576Z,60.05
2022-12-04T17:41:30.381Z,60.30
2022-12-04T17:44:01.085Z,60.08
2022-12-04T17:46:29.143Z,59.05
2022-12-04T17:48:59.553Z,62.63
2022-12-04T17:51:32.938Z,66.43
2022-12-04T17:54:04.856Z,63.08
2022-12-04T17:56:34.883Z,60.85
2022-12-04T17:59:06.232Z,59.35
2022-12-04T18:01:36.326Z,63.00
2022-12-04T18:04:09.213Z,61.60
2022-12-04T18:06:44.101Z,55.80
2022-12-04T18:09:18.189Z,62.03
2022-12-04T18:11:48.997Z,60.40
2022-12-04T18:14:23.883Z,60.03
2022-12-04T18:16:57.813Z,59.42
2022-12-04T18:19:30.675Z,58.42
2022-12-04T18:22:01.226Z,59.35
2022-12-04T18:24:31.296Z,57.92
2022-12-04T18:27:03.699Z,59.88
2022-12-04T18:29:34.046Z,57.50
2022-12-04T18:32:04.438Z,58.22
2022-12-04T18:34:34.595Z,60.30
2022-12-04T18:37:04.608Z,59.20
2022-12-04T18:39:34.634Z,55.78
2022-12-04T18:42:05.750Z,57.33
2022-12-04T18:44:35.969Z,62.30
2022-12-04T18:47:06.054Z,58.58
2022-12-04T18:49:36.069Z,58.05
2022-12-04T18:52:06.119Z,56.13
2022-12-04T18:54:36.188Z,56.17
2022-12-04T18:57:06.289Z,56.22
2022-12-04T18:59:37.423Z,56.13
2022-12-04T19:02:05.144Z,56.22
2022-12-04T19:04:33.730Z,53.60
2022-12-04T19:07:02.836Z,52.92
2022-12-04T19:12:19.545Z,55.28
2022-12-04T19:14:47.302Z,52.67
2022-12-04T19:17:16.051Z,53.90
2022-12-04T19:19:44.221Z,57.83
2022-12-04T19:22:13.292Z,58.30
2022-12-04T19:24:41.942Z,55.33
2022-12-04T19:27:12.389Z,55.40
2022-12-04T19:29:44.296Z,57.00
2022-12-04T19:32:14.688Z,52.90
2022-12-04T19:34:42.405Z,54.33
2022-12-04T19:37:10.973Z,54.53
2022-12-04T19:39:39.345Z,53.95
2022-12-04T19:42:10.787Z,52.75
2022-12-04T19:44:49.438Z,54.20
2022-12-04T19:47:19.963Z,53.45
2022-12-04T19:49:50.242Z,50.80
2022-12-04T19:52:20.601Z,55.25
2022-12-04T19:54:50.622Z,54.35
2022-12-04T19:57:20.729Z,51.58
2022-12-04T19:59:50.768Z,52.70
2022-12-04T20:02:20.816Z,53.20
2022-12-04T20:04:50.867Z,52.88
2022-12-04T20:07:20.912Z,53.70
2022-12-04T20:09:52.562Z,55.05
2022-12-04T20:12:23.507Z,56.22
2022-12-04T20:14:51.886Z,52.38
2022-12-04T20:17:19.219Z,52.42
2022-12-04T20:19:47.643Z,54.05
2022-12-04T20:22:16.118Z,54.13
2022-12-04T20:24:44.789Z,56.25
2022-12-04T20:27:13.194Z,51.58
2022-12-04T20:29:41.701Z,51.60
2022-12-04T20:32:10.035Z,49.10
2022-12-04T20:34:43.323Z,51.60
2022-12-04T20:37:13.875Z,51.08
2022-12-04T20:39:43.928Z,52.15
2022-12-04T20:42:16.191Z,50.10
2022-12-04T20:44:46.255Z,52.97
2022-12-04T20:47:16.425Z,53.05
2022-12-04T20:49:46.416Z,53.83
2022-12-04T20:52:16.467Z,53.20
2022-12-04T20:54:46.542Z,52.53
2022-12-04T20:57:16.607Z,53.15
2022-12-04T20:59:46.605Z,54.10
2022-12-04T21:02:16.683Z,52.85
2022-12-04T21:04:46.809Z,54.50
2022-12-04T21:07:17.031Z,54.50
2022-12-04T21:09:47.031Z,54.60
2022-12-04T21:12:41.406Z,52.80
2022-12-04T21:15:31.547Z,54.40
2022-12-04T21:18:02.271Z,56.15
2022-12-04T21:20:32.611Z,54.83
2022-12-04T21:23:00.718Z,52.97
2022-12-04T21:25:29.119Z,54.15
2022-12-04T21:27:57.536Z,54.85
2022-12-04T21:30:25.954Z,53.75
2022-12-04T21:32:54.339Z,54.10
2022-12-04T21:35:22.875Z,55.38
2022-12-04T21:37:51.182Z,53.92
2022-12-04T21:40:19.596Z,54.17
2022-12-04T21:42:48.018Z,51.50
2022-12-04T21:45:16.639Z,52.17
2022-12-04T21:47:45.231Z,52.80
2022-12-04T21:50:13.372Z,54.00
2022-12-04T21:52:41.692Z,53.47
2022-12-04T21:55:11.414Z,49.05
2022-12-04T21:57:38.771Z,50.40
2022-12-04T22:00:08.422Z,52.42
2022-12-04T22:02:36.386Z,54.53
2022-12-04T22:05:04.448Z,51.08
2022-12-04T22:07:32.865Z,52.47
2022-12-04T22:10:05.402Z,50.35
2022-12-04T22:12:49.614Z,53.40
2022-12-04T22:15:20.271Z,51.05
2022-12-04T22:17:50.377Z,51.95
2022-12-04T22:20:18.748Z,55.83
2022-12-04T22:22:47.182Z,50.97
2022-12-04T22:25:16.009Z,56.38
2022-12-04T22:27:44.031Z,52.63
2022-12-04T22:30:13.203Z,50.92
2022-12-04T22:32:40.830Z,51.83
2022-12-04T22:35:09.660Z,53.55
2022-12-04T22:37:42.752Z,52.55
2022-12-04T22:40:16.038Z,53.00
2022-12-04T22:42:46.227Z,50.35
2022-12-04T22:45:16.877Z,52.50
2022-12-04T22:47:46.989Z,52.25
2022-12-04T22:50:17.144Z,52.17
2022-12-04T22:52:47.227Z,51.35
2022-12-04T22:55:17.403Z,51.35
2022-12-04T22:57:47.422Z,53.78
2022-12-04T23:00:18.017Z,49.40
2022-12-04T23:02:48.148Z,52.97
2022-12-04T23:05:18.238Z,54.75
2022-12-04T23:07:48.637Z,54.58
2022-12-04T23:10:18.718Z,53.70
2022-12-04T23:12:48.781Z,49.88
2022-12-04T23:15:19.102Z,50.55
2022-12-04T23:17:49.280Z,54.15
2022-12-04T23:20:18.094Z,54.25
2022-12-04T23:22:46.071Z,52.10
2022-12-04T23:25:15.235Z,53.72
2022-12-04T23:27:42.851Z,51.78
2022-12-04T23:30:11.587Z,53.15
2022-12-04T23:32:39.824Z,52.60
2022-12-04T23:35:09.025Z,52.25
2022-12-04T23:37:37.097Z,54.90
2022-12-04T23:40:08.430Z,52.28
2022-12-04T23:42:38.267Z,50.80
2022-12-04T23:45:08.790Z,53.38
2022-12-04T23:47:38.279Z,50.72
2022-12-04T23:50:08.585Z,50.83
2022-12-04T23:52:38.425Z,50.60
2022-12-04T23:55:09.038Z,56.03
2022-12-04T23:57:39.038Z,51.95
